createdAt,value
2023-05-09T00:00:00.662Z,6.8
2023-05-09T00:01:12.315Z,6.8
2023-05-09T00:02:00.672Z,6.8
2023-05-09T00:03:00.627Z,6.8
2023-05-09T00:04:00.934Z,6.8
2023-05-09T00:05:00.643Z,6.7
2023-05-09T00:06:00.648Z,6.7
2023-05-09T00:07:00.700Z,6.7
2023-05-09T00:08:00.607Z,6.7
2023-05-09T00:09:00.642Z,6.6
2023-05-09T00:10:00.714Z,6.6
2023-05-09T00:11:01.054Z,6.6
2023-05-09T00:12:00.609Z,6.6
2023-05-09T00:13:00.679Z,6.6
2023-05-09T00:14:00.640Z,6.5
2023-05-09T00:15:00.771Z,6.6
2023-05-09T00:16:00.645Z,6.6
2023-05-09T00:17:00.653Z,6.5
2023-05-09T00:18:00.654Z,6.5
2023-05-09T00:19:00.668Z,6.5
2023-05-09T00:20:01.374Z,6.4
2023-05-09T00:21:00.620Z,6.4
2023-05-09T00:22:00.614Z,6.4
2023-05-09T00:23:00.643Z,6.4
2023-05-09T00:24:00.622Z,6.4
2023-05-09T00:25:00.640Z,6.4
2023-05-09T00:26:00.631Z,6.3
2023-05-09T00:27:00.620Z,6.3
2023-05-09T00:28:00.618Z,6.3
2023-05-09T00:29:00.612Z,6.3
2023-05-09T00:30:00.856Z,6.3
2023-05-09T00:31:00.630Z,6.2
2023-05-09T00:32:00.657Z,6.2
2023-05-09T00:33:00.658Z,6.2
2023-05-09T00:34:00.618Z,6.2
2023-05-09T00:35:00.650Z,6.2
2023-05-09T00:36:00.629Z,6.2
2023-05-09T00:37:00.825Z,6.2
2023-05-09T00:38:00.698Z,6.2
2023-05-09T00:39:00.632Z,6.2
2023-05-09T00:40:00.709Z,6.2
2023-05-09T00:41:00.680Z,6.2
2023-05-09T00:42:00.632Z,6.1
2023-05-09T00:43:00.694Z,6.1
2023-05-09T00:44:00.603Z,6.1
2023-05-09T00:45:01.430Z,6.1
2023-05-09T00:46:00.706Z,6.1
2023-05-09T00:47:00.730Z,6.1
2023-05-09T00:48:00.915Z,6.2
2023-05-09T00:49:00.939Z,6.2
2023-05-09T00:50:01.321Z,6.1
2023-05-09T00:51:00.969Z,6.1
2023-05-09T00:52:01.813Z,6.1
2023-05-09T00:53:00.700Z,6.1
2023-05-09T00:54:00.958Z,6.1
2023-05-09T00:55:01.008Z,6.1
2023-05-09T00:56:00.966Z,6.1
2023-05-09T00:57:00.624Z,6.1
2023-05-09T00:58:01.849Z,6.1
2023-05-09T00:59:00.641Z,6.0
2023-05-09T01:00:00.880Z,6.0
2023-05-09T01:01:00.614Z,6.0
2023-05-09T01:02:00.613Z,6.0
2023-05-09T01:03:00.791Z,6.0
2023-05-09T01:04:00.669Z,6.0
2023-05-09T01:05:00.731Z,5.9
2023-05-09T01:06:18.002Z,5.9
2023-05-09T01:07:04.489Z,5.9
2023-05-09T01:08:09.714Z,5.9
2023-05-09T01:09:07.030Z,5.9
2023-05-09T01:10:14.963Z,5.9
2023-05-09T01:11:08.449Z,5.8
2023-05-09T01:12:20.520Z,5.8
2023-05-09T01:13:05.013Z,5.8
2023-05-09T01:14:10.582Z,5.8
2023-05-09T01:15:07.411Z,5.8
2023-05-09T01:16:16.891Z,5.8
2023-05-09T01:17:07.144Z,5.8
2023-05-09T01:18:08.649Z,5.8
2023-05-09T01:19:20.555Z,5.8
2023-05-09T01:20:08.670Z,5.7
2023-05-09T01:21:05.258Z,5.7
2023-05-09T01:22:06.308Z,5.7
2023-05-09T01:23:20.523Z,5.7
2023-05-09T01:24:11.570Z,5.7
2023-05-09T01:25:20.550Z,5.7
2023-05-09T01:26:06.838Z,5.7
2023-05-09T01:27:11.221Z,5.6
2023-05-09T01:28:13.006Z,5.6
2023-05-09T01:29:10.807Z,5.6
2023-05-09T01:30:02.663Z,5.6
2023-05-09T01:31:02.937Z,5.6
2023-05-09T01:32:06.210Z,5.6
2023-05-09T01:33:06.091Z,5.6
2023-05-09T01:34:01.597Z,5.6
2023-05-09T01:35:03.054Z,5.5
2023-05-09T01:36:06.708Z,5.5
2023-05-09T01:37:04.383Z,5.5
2023-05-09T01:38:05.078Z,5.5
2023-05-09T01:39:02.516Z,5.4
2023-05-09T01:40:07.077Z,5.4
2023-05-09T01:41:01.961Z,5.4
2023-05-09T01:42:03.355Z,5.4
2023-05-09T01:43:05.167Z,5.4
2023-05-09T01:44:03.749Z,5.4
2023-05-09T01:45:02.150Z,5.4
2023-05-09T01:46:03.799Z,5.3
2023-05-09T01:47:02.032Z,5.3
2023-05-09T01:48:01.569Z,5.3
2023-05-09T01:49:01.883Z,5.3
2023-05-09T01:50:02.714Z,5.3
2023-05-09T01:51:01.326Z,5.3
2023-05-09T01:52:04.588Z,5.3
2023-05-09T01:53:02.079Z,5.3
2023-05-09T01:54:00.875Z,5.3
2023-05-09T01:55:01.411Z,5.3
2023-05-09T01:56:03.306Z,5.2
2023-05-09T01:57:02.668Z,5.2
2023-05-09T01:58:03.255Z,5.2
2023-05-09T01:59:01.616Z,5.2
2023-05-09T02:00:01.777Z,5.2
2023-05-09T02:01:02.040Z,5.2
2023-05-09T02:02:03.077Z,5.2
2023-05-09T02:03:02.673Z,5.2
2023-05-09T02:04:03.337Z,5.2
2023-05-09T02:05:01.163Z,5.2
2023-05-09T02:06:02.320Z,5.2
2023-05-09T02:07:01.683Z,5.2
2023-05-09T02:08:00.720Z,5.2
2023-05-09T02:09:01.142Z,5.1
2023-05-09T02:10:01.572Z,5.1
2023-05-09T02:11:00.670Z,5.1
2023-05-09T02:12:00.646Z,5.1
2023-05-09T02:13:00.705Z,5.1
2023-05-09T02:14:00.669Z,5.1
2023-05-09T02:15:00.655Z,5.1
2023-05-09T02:16:01.178Z,5.1
2023-05-09T02:17:00.812Z,5.1
2023-05-09T02:18:00.685Z,5.0
2023-05-09T02:19:00.624Z,5.0
2023-05-09T02:20:00.647Z,5.0
2023-05-09T02:21:01.298Z,5.0
2023-05-09T02:22:02.012Z,5.0
2023-05-09T02:23:00.984Z,5.0
2023-05-09T02:24:00.746Z,5.0
2023-05-09T02:25:01.770Z,5.0
2023-05-09T02:26:01.307Z,5.0
2023-05-09T02:27:02.408Z,5.0
2023-05-09T02:28:01.787Z,5.0
2023-05-09T02:29:02.252Z,5.0
2023-05-09T02:30:05.298Z,5.0
2023-05-09T02:31:03.488Z,4.9
2023-05-09T02:32:03.962Z,5.0
2023-05-09T02:33:04.894Z,5.0
2023-05-09T02:34:02.373Z,5.0
2023-05-09T02:35:01.915Z,4.9
2023-05-09T02:36:01.428Z,4.9
2023-05-09T02:37:00.706Z,4.9
2023-05-09T02:38:01.149Z,4.9
2023-05-09T02:39:01.146Z,4.9
2023-05-09T02:40:00.617Z,4.9
2023-05-09T02:41:00.708Z,4.9
2023-05-09T02:42:09.906Z,4.9
2023-05-09T02:43:00.714Z,4.8
2023-05-09T02:44:00.612Z,4.8
2023-05-09T02:45:00.622Z,4.8
2023-05-09T02:46:00.633Z,4.8
2023-05-09T02:47:02.966Z,4.8
2023-05-09T02:48:00.673Z,4.7
2023-05-09T02:49:00.620Z,4.7
2023-05-09T02:50:00.639Z,4.7
2023-05-09T02:51:00.825Z,4.7
2023-05-09T02:52:00.680Z,4.7
2023-05-09T02:53:00.611Z,4.7
2023-05-09T02:54:00.659Z,4.7
2023-05-09T02:55:02.635Z,4.7
2023-05-09T02:56:00.616Z,4.6
2023-05-09T02:57:00.643Z,4.6
2023-05-09T02:58:12.642Z,4.6
2023-05-09T02:59:00.606Z,4.6
2023-05-09T03:00:00.735Z,4.6
2023-05-09T03:01:00.699Z,4.6
2023-05-09T03:02:00.756Z,4.6
2023-05-09T03:03:01.142Z,4.6
2023-05-09T03:04:00.830Z,4.6
2023-05-09T03:05:00.922Z,4.6
2023-05-09T03:06:00.607Z,4.6
2023-05-09T03:07:00.625Z,4.6
2023-05-09T03:08:00.622Z,4.6
2023-05-09T03:09:00.679Z,4.6
2023-05-09T03:10:00.654Z,4.6
2023-05-09T03:11:00.642Z,4.6
2023-05-09T03:12:00.654Z,4.6
2023-05-09T03:13:00.637Z,4.6
2023-05-09T03:14:00.605Z,4.6
2023-05-09T03:15:00.614Z,4.5
2023-05-09T03:16:00.656Z,4.5
2023-05-09T03:17:00.780Z,4.5
2023-05-09T03:18:00.635Z,4.5
2023-05-09T03:19:00.842Z,4.5
2023-05-09T03:20:03.953Z,4.5
2023-05-09T03:21:00.610Z,4.5
2023-05-09T03:22:00.759Z,4.5
2023-05-09T03:23:00.621Z,4.5
2023-05-09T03:24:00.682Z,4.5
2023-05-09T03:25:00.696Z,4.5
2023-05-09T03:26:00.650Z,4.6
2023-05-09T03:27:00.654Z,4.6
2023-05-09T03:28:00.661Z,4.6
2023-05-09T03:29:01.444Z,4.6
2023-05-09T03:30:00.636Z,4.6
2023-05-09T03:31:00.639Z,4.6
2023-05-09T03:32:00.681Z,4.6
2023-05-09T03:33:00.701Z,4.6
2023-05-09T03:34:00.755Z,4.6
2023-05-09T03:35:00.654Z,4.6
2023-05-09T03:36:00.627Z,4.6
2023-05-09T03:37:00.621Z,4.6
2023-05-09T03:38:00.617Z,4.6
2023-05-09T03:39:00.622Z,4.7
2023-05-09T03:40:00.805Z,4.7
2023-05-09T03:41:00.626Z,4.7
2023-05-09T03:42:00.658Z,4.7
2023-05-09T03:43:00.651Z,4.7
2023-05-09T03:44:01.631Z,4.7
2023-05-09T03:45:00.649Z,4.7
2023-05-09T03:46:00.692Z,4.7
2023-05-09T03:47:00.735Z,4.8
2023-05-09T03:48:00.995Z,4.9
2023-05-09T03:49:00.718Z,4.9
2023-05-09T03:50:00.656Z,4.9
2023-05-09T03:51:00.801Z,4.9
2023-05-09T03:52:00.619Z,4.9
2023-05-09T03:53:01.172Z,5.1
2023-05-09T03:54:00.634Z,5.1
2023-05-09T03:55:00.638Z,5.2
2023-05-09T03:56:00.634Z,5.2
2023-05-09T03:57:00.667Z,5.2
2023-05-09T03:58:02.478Z,5.3
2023-05-09T03:59:00.683Z,5.3
2023-05-09T04:00:01.573Z,5.4
2023-05-09T04:01:01.024Z,5.4
2023-05-09T04:02:00.823Z,5.5
2023-05-09T04:03:00.808Z,5.5
2023-05-09T04:04:00.792Z,5.5
2023-05-09T04:05:00.755Z,5.5
2023-05-09T04:06:00.697Z,5.5
2023-05-09T04:07:00.714Z,5.5
2023-05-09T04:08:00.927Z,5.5
2023-05-09T04:09:00.639Z,5.5
2023-05-09T04:10:00.641Z,5.6
2023-05-09T04:11:00.639Z,5.6
2023-05-09T04:12:00.591Z,5.5
2023-05-09T04:13:00.656Z,5.6
2023-05-09T04:14:00.640Z,5.7
2023-05-09T04:15:00.714Z,5.8
2023-05-09T04:16:00.683Z,5.8
2023-05-09T04:17:00.773Z,5.8
2023-05-09T04:18:00.772Z,5.8
2023-05-09T04:19:00.699Z,5.7
2023-05-09T04:20:00.802Z,5.8
2023-05-09T04:21:00.618Z,6.0
2023-05-09T04:22:00.638Z,5.9
2023-05-09T04:23:00.612Z,5.9
2023-05-09T04:24:00.625Z,5.9
2023-05-09T04:25:00.780Z,6.0
2023-05-09T04:26:00.613Z,5.9
2023-05-09T04:27:00.737Z,6.0
2023-05-09T04:28:00.655Z,6.2
2023-05-09T04:29:00.615Z,6.2
2023-05-09T04:30:00.626Z,6.3
2023-05-09T04:31:00.773Z,6.3
2023-05-09T04:32:01.403Z,6.3
2023-05-09T04:33:00.828Z,6.3
2023-05-09T04:34:00.655Z,6.3
2023-05-09T04:35:00.675Z,6.6
2023-05-09T04:36:00.627Z,6.5
2023-05-09T04:37:00.662Z,6.6
2023-05-09T04:38:00.609Z,6.5
2023-05-09T04:39:00.634Z,6.7
2023-05-09T04:40:00.800Z,6.8
2023-05-09T04:41:00.636Z,6.9
2023-05-09T04:42:00.611Z,7.0
2023-05-09T04:43:00.657Z,7.1
2023-05-09T04:44:00.797Z,7.2
2023-05-09T04:45:00.882Z,7.3
2023-05-09T04:46:00.627Z,7.4
2023-05-09T04:47:00.740Z,7.4
2023-05-09T04:48:00.702Z,7.3
2023-05-09T04:49:00.663Z,7.3
2023-05-09T04:50:00.778Z,7.3
2023-05-09T04:51:00.996Z,7.3
2023-05-09T04:52:00.644Z,7.4
2023-05-09T04:53:00.693Z,7.6
2023-05-09T04:54:00.641Z,7.9
2023-05-09T04:55:00.963Z,8.0
2023-05-09T04:56:00.655Z,8.0
2023-05-09T04:57:13.831Z,7.9
2023-05-09T04:58:00.698Z,8.1
2023-05-09T04:59:00.644Z,8.0
2023-05-09T05:00:00.651Z,8.0
2023-05-09T05:01:00.643Z,7.9
2023-05-09T05:02:01.356Z,8.2
2023-05-09T05:03:00.662Z,8.1
2023-05-09T05:04:00.650Z,8.1
2023-05-09T05:05:11.087Z,8.0
2023-05-09T05:06:00.621Z,8.1
2023-05-09T05:07:00.693Z,8.3
2023-05-09T05:08:00.679Z,8.6
2023-05-09T05:09:00.659Z,8.4
2023-05-09T05:10:00.636Z,8.5
2023-05-09T05:11:00.643Z,8.7
2023-05-09T05:12:02.955Z,8.5
2023-05-09T05:13:01.046Z,8.6
2023-05-09T05:14:00.635Z,8.7
2023-05-09T05:15:00.681Z,8.9
2023-05-09T05:16:00.677Z,8.9
2023-05-09T05:17:00.652Z,8.6
2023-05-09T05:18:00.681Z,8.6
2023-05-09T05:19:00.649Z,8.8
2023-05-09T05:20:00.654Z,9.2
2023-05-09T05:21:00.665Z,9.3
2023-05-09T05:22:00.639Z,8.9
2023-05-09T05:23:00.632Z,8.9
2023-05-09T05:24:00.607Z,9.1
2023-05-09T05:25:00.872Z,9.5
2023-05-09T05:26:00.610Z,9.3
2023-05-09T05:27:00.652Z,9.1
2023-05-09T05:28:01.048Z,9.3
2023-05-09T05:29:00.608Z,9.1
2023-05-09T05:30:00.705Z,9.4
2023-05-09T05:31:00.663Z,9.4
2023-05-09T05:32:00.674Z,9.4
2023-05-09T05:33:00.661Z,9.7
2023-05-09T05:34:00.779Z,9.3
2023-05-09T05:35:00.646Z,9.5
2023-05-09T05:36:00.664Z,9.5
2023-05-09T05:37:00.634Z,9.6
2023-05-09T05:38:00.610Z,9.4
2023-05-09T05:39:00.609Z,9.9
2023-05-09T05:40:00.667Z,9.8
2023-05-09T05:41:00.618Z,9.8
2023-05-09T05:42:00.615Z,10.2
2023-05-09T05:43:00.689Z,10.6
2023-05-09T05:44:00.608Z,10.4
2023-05-09T05:45:01.017Z,10.3
2023-05-09T05:46:00.663Z,10.6
2023-05-09T05:47:00.620Z,10.7
2023-05-09T05:48:00.642Z,10.7
2023-05-09T05:49:00.646Z,10.2
2023-05-09T05:50:02.794Z,10.0
2023-05-09T05:51:00.685Z,10.3
2023-05-09T05:52:00.610Z,10.6
2023-05-09T05:53:00.605Z,10.6
2023-05-09T05:54:00.612Z,10.8
2023-05-09T05:55:00.637Z,10.8
2023-05-09T05:56:00.620Z,11.1
2023-05-09T05:57:00.680Z,11.3
2023-05-09T05:58:00.630Z,11.3
2023-05-09T05:59:00.622Z,11.3
2023-05-09T06:00:00.760Z,10.8
2023-05-09T06:01:00.605Z,10.8
2023-05-09T06:02:00.686Z,11.0
2023-05-09T06:03:00.735Z,11.2
2023-05-09T06:04:00.812Z,11.0
2023-05-09T06:05:00.649Z,10.9
2023-05-09T06:06:00.721Z,10.3
2023-05-09T06:07:00.656Z,10.7
2023-05-09T06:08:00.608Z,10.8
2023-05-09T06:09:00.670Z,10.7
2023-05-09T06:10:00.666Z,11.1
2023-05-09T06:11:00.754Z,11.1
2023-05-09T06:12:00.636Z,10.9
2023-05-09T06:13:00.679Z,11.1
2023-05-09T06:14:00.607Z,11.3
2023-05-09T06:15:01.012Z,11.2
2023-05-09T06:16:15.025Z,11.1
2023-05-09T06:17:00.687Z,11.1
2023-05-09T06:18:00.665Z,11.1
2023-05-09T06:19:00.602Z,11.1
2023-05-09T06:20:00.732Z,10.8
2023-05-09T06:21:00.622Z,10.9
2023-05-09T06:22:00.602Z,10.9
2023-05-09T06:23:00.648Z,11.0
2023-05-09T06:24:09.705Z,11.2
2023-05-09T06:25:00.627Z,11.3
2023-05-09T06:26:00.675Z,11.2
2023-05-09T06:27:00.618Z,11.6
2023-05-09T06:28:00.633Z,11.9
2023-05-09T06:29:01.011Z,12.0
2023-05-09T06:30:04.166Z,12.5
2023-05-09T06:31:00.648Z,12.5
2023-05-09T06:32:00.651Z,12.9
2023-05-09T06:33:00.643Z,12.6
2023-05-09T06:34:00.641Z,12.2
2023-05-09T06:35:00.643Z,12.4
2023-05-09T06:36:00.619Z,12.1
2023-05-09T06:37:00.629Z,12.1
2023-05-09T06:38:00.648Z,12.2
2023-05-09T06:39:00.671Z,12.4
2023-05-09T06:40:00.716Z,12.1
2023-05-09T06:41:00.635Z,11.9
2023-05-09T06:42:00.595Z,12.0
2023-05-09T06:43:00.609Z,12.1
2023-05-09T06:44:00.607Z,12.2
2023-05-09T06:45:00.713Z,11.9
2023-05-09T06:46:01.244Z,12.0
2023-05-09T06:47:00.635Z,12.1
2023-05-09T06:48:00.640Z,11.8
2023-05-09T06:49:00.695Z,11.8
2023-05-09T06:50:00.677Z,11.7
2023-05-09T06:51:00.652Z,11.6
2023-05-09T06:52:00.695Z,11.7
2023-05-09T06:53:00.617Z,12.2
2023-05-09T06:54:00.606Z,12.4
2023-05-09T06:55:00.656Z,12.7
2023-05-09T06:56:00.650Z,13.1
2023-05-09T06:57:00.696Z,13.4
2023-05-09T06:58:00.663Z,13.7
2023-05-09T06:59:00.769Z,13.2
2023-05-09T07:00:00.635Z,13.1
2023-05-09T07:01:00.800Z,13.3
2023-05-09T07:02:00.688Z,13.0
2023-05-09T07:03:00.758Z,12.6
2023-05-09T07:04:00.600Z,12.9
2023-05-09T07:05:00.839Z,13.1
2023-05-09T07:06:00.623Z,13.2
2023-05-09T07:07:00.604Z,13.4
2023-05-09T07:08:00.625Z,13.2
2023-05-09T07:09:00.655Z,13.1
2023-05-09T07:10:10.647Z,12.6
2023-05-09T07:11:00.621Z,12.4
2023-05-09T07:12:00.636Z,12.6
2023-05-09T07:13:00.852Z,12.5
2023-05-09T07:14:00.874Z,12.3
2023-05-09T07:15:00.600Z,12.5
2023-05-09T07:16:00.821Z,12.5
2023-05-09T07:17:18.212Z,12.5
2023-05-09T07:18:00.652Z,12.3
2023-05-09T07:19:00.607Z,12.2
2023-05-09T07:20:00.668Z,12.4
2023-05-09T07:21:00.674Z,12.7
2023-05-09T07:22:00.613Z,13.0
2023-05-09T07:23:02.464Z,12.5
2023-05-09T07:24:00.646Z,12.3
2023-05-09T07:25:00.699Z,12.7
2023-05-09T07:26:00.624Z,12.5
2023-05-09T07:27:02.190Z,12.4
2023-05-09T07:28:00.651Z,12.7
2023-05-09T07:29:00.638Z,13.1
2023-05-09T07:30:00.970Z,13.2
2023-05-09T07:31:00.627Z,12.6
2023-05-09T07:32:00.674Z,12.7
2023-05-09T07:33:00.671Z,12.9
2023-05-09T07:34:00.697Z,13.3
2023-05-09T07:35:00.915Z,13.1
2023-05-09T07:36:00.664Z,13.4
2023-05-09T07:37:00.633Z,13.3
2023-05-09T07:38:00.616Z,13.1
2023-05-09T07:39:00.615Z,13.1
2023-05-09T07:40:00.623Z,13.6
2023-05-09T07:41:00.608Z,12.8
2023-05-09T07:42:00.751Z,12.7
2023-05-09T07:43:01.792Z,12.7
2023-05-09T07:44:00.773Z,12.8
2023-05-09T07:45:00.602Z,12.9
2023-05-09T07:46:00.701Z,13.2
2023-05-09T07:47:00.615Z,13.6
2023-05-09T07:48:00.718Z,13.2
2023-05-09T07:49:00.631Z,12.8
2023-05-09T07:50:00.630Z,13.0
2023-05-09T07:51:00.629Z,13.1
2023-05-09T07:52:00.689Z,13.3
2023-05-09T07:53:00.632Z,13.5
2023-05-09T07:54:00.641Z,13.4
2023-05-09T07:55:00.629Z,13.2
2023-05-09T07:56:00.737Z,13.3
2023-05-09T07:57:00.670Z,13.5
2023-05-09T07:58:00.655Z,13.3
2023-05-09T07:59:00.606Z,13.4
2023-05-09T08:00:00.643Z,13.4
2023-05-09T08:01:00.612Z,13.3
2023-05-09T08:02:00.679Z,13.6
2023-05-09T08:03:00.808Z,13.5
2023-05-09T08:04:00.773Z,12.9
2023-05-09T08:05:00.819Z,13.4
2023-05-09T08:06:00.762Z,13.7
2023-05-09T08:07:00.616Z,13.5
2023-05-09T08:08:00.713Z,13.9
2023-05-09T08:09:00.647Z,14.1
2023-05-09T08:10:00.607Z,14.1
2023-05-09T08:11:00.637Z,14.3
2023-05-09T08:12:00.615Z,14.6
2023-05-09T08:13:00.628Z,14.8
2023-05-09T08:14:01.284Z,14.9
2023-05-09T08:15:00.660Z,15.0
2023-05-09T08:16:00.887Z,14.5
2023-05-09T08:17:00.632Z,14.4
2023-05-09T08:18:00.667Z,14.1
2023-05-09T08:19:00.788Z,14.1
2023-05-09T08:20:00.745Z,13.9
2023-05-09T08:21:00.623Z,14.0
2023-05-09T08:22:00.730Z,14.5
2023-05-09T08:23:00.679Z,14.5
2023-05-09T08:24:00.652Z,14.2
2023-05-09T08:25:00.652Z,14.3
2023-05-09T08:26:00.736Z,14.2
2023-05-09T08:27:00.614Z,14.3
2023-05-09T08:28:00.688Z,13.9
2023-05-09T08:29:00.646Z,14.0
2023-05-09T08:30:00.719Z,14.4
2023-05-09T08:31:01.173Z,14.6
2023-05-09T08:32:00.638Z,14.3
2023-05-09T08:33:00.772Z,14.0
2023-05-09T08:34:00.632Z,14.0
2023-05-09T08:35:00.640Z,13.8
2023-05-09T08:36:00.869Z,13.4
2023-05-09T08:37:01.303Z,13.7
2023-05-09T08:38:00.627Z,13.6
2023-05-09T08:39:00.714Z,13.7
2023-05-09T08:40:00.895Z,13.7
2023-05-09T08:41:01.529Z,13.9
2023-05-09T08:42:01.507Z,13.9
2023-05-09T08:43:01.965Z,13.6
2023-05-09T08:44:00.887Z,14.0
2023-05-09T08:45:05.939Z,14.0
2023-05-09T08:46:05.666Z,14.1
2023-05-09T08:47:02.315Z,14.0
2023-05-09T08:48:02.553Z,14.3
2023-05-09T08:49:03.494Z,14.6
2023-05-09T08:50:02.292Z,14.4
2023-05-09T08:51:00.983Z,14.2
2023-05-09T08:52:01.176Z,14.5
2023-05-09T08:53:00.847Z,14.8
2023-05-09T08:54:01.247Z,14.8
2023-05-09T08:55:02.760Z,15.2
2023-05-09T08:56:02.722Z,15.1
2023-05-09T08:57:00.808Z,14.9
2023-05-09T08:58:01.777Z,14.4
2023-05-09T08:59:00.686Z,14.5
2023-05-09T09:00:01.134Z,14.6
2023-05-09T09:01:01.942Z,14.4
2023-05-09T09:02:00.913Z,14.2
2023-05-09T09:03:01.848Z,14.1
2023-05-09T09:04:04.265Z,14.1
2023-05-09T09:05:00.720Z,14.1
2023-05-09T09:06:01.222Z,14.0
2023-05-09T09:07:03.133Z,14.2
2023-05-09T09:08:02.384Z,14.3
2023-05-09T09:09:02.008Z,14.3
2023-05-09T09:10:02.401Z,14.4
2023-05-09T09:11:00.956Z,14.2
2023-05-09T09:12:01.784Z,14.4
2023-05-09T09:13:02.381Z,14.6
2023-05-09T09:14:05.045Z,14.2
2023-05-09T09:15:03.922Z,14.2
2023-05-09T09:16:01.044Z,14.4
2023-05-09T09:17:00.904Z,14.6
2023-05-09T09:18:07.625Z,14.8
2023-05-09T09:19:01.963Z,14.3
2023-05-09T09:20:04.132Z,14.4
2023-05-09T09:21:05.948Z,14.2
2023-05-09T09:22:03.094Z,13.8
2023-05-09T09:23:03.339Z,14.1
2023-05-09T09:24:01.835Z,13.9
2023-05-09T09:25:01.273Z,14.1
2023-05-09T09:26:02.091Z,14.3
2023-05-09T09:27:05.058Z,14.6
2023-05-09T09:28:00.843Z,14.5
2023-05-09T09:29:00.690Z,14.3
2023-05-09T09:30:09.563Z,14.5
2023-05-09T09:31:00.954Z,14.6
2023-05-09T09:32:02.733Z,14.8
2023-05-09T09:33:00.764Z,14.8
2023-05-09T09:34:01.630Z,14.7
2023-05-09T09:35:04.804Z,14.3
2023-05-09T09:36:00.654Z,14.0
2023-05-09T09:37:00.683Z,13.7
2023-05-09T09:38:00.618Z,14.0
2023-05-09T09:39:02.453Z,14.1
2023-05-09T09:40:01.564Z,14.4
2023-05-09T09:41:00.639Z,14.5
2023-05-09T09:42:09.551Z,14.6
2023-05-09T09:43:00.605Z,14.6
2023-05-09T09:44:10.259Z,14.7
2023-05-09T09:45:01.800Z,14.4
2023-05-09T09:46:02.283Z,14.3
2023-05-09T09:47:00.668Z,14.3
2023-05-09T09:48:04.971Z,14.2
2023-05-09T09:49:00.608Z,14.2
2023-05-09T09:50:16.870Z,14.1
2023-05-09T09:51:09.006Z,13.9
2023-05-09T09:52:00.622Z,13.9
2023-05-09T09:53:00.622Z,13.7
2023-05-09T09:54:02.964Z,13.7
2023-05-09T09:55:00.756Z,13.7
2023-05-09T09:56:00.672Z,13.9
2023-05-09T09:57:00.640Z,13.9
2023-05-09T09:58:00.752Z,13.9
2023-05-09T09:59:11.478Z,13.7
2023-05-09T10:00:00.742Z,13.9
2023-05-09T10:01:05.572Z,14.0
2023-05-09T10:02:06.600Z,13.8
2023-05-09T10:03:00.774Z,13.8
2023-05-09T10:04:02.273Z,13.9
2023-05-09T10:05:08.018Z,14.0
2023-05-09T10:06:00.921Z,14.1
2023-05-09T10:07:02.568Z,14.2
2023-05-09T10:08:03.554Z,14.2
2023-05-09T10:09:00.673Z,14.3
2023-05-09T10:10:01.549Z,14.4
2023-05-09T10:11:00.664Z,14.3
2023-05-09T10:12:03.032Z,14.1
2023-05-09T10:13:03.773Z,14.1
2023-05-09T10:14:00.699Z,14.2
2023-05-09T10:15:03.210Z,14.2
2023-05-09T10:16:01.145Z,14.2
2023-05-09T10:17:02.060Z,14.3
2023-05-09T10:18:01.065Z,14.1
2023-05-09T10:19:01.072Z,14.1
2023-05-09T10:20:04.863Z,14.1
2023-05-09T10:21:01.309Z,14.1
2023-05-09T10:22:05.029Z,14.1
2023-05-09T10:23:01.722Z,14.2
2023-05-09T10:24:02.166Z,14.3
2023-05-09T10:25:03.822Z,14.5
2023-05-09T10:26:06.865Z,14.5
2023-05-09T10:27:02.814Z,14.5
2023-05-09T10:28:02.635Z,14.6
2023-05-09T10:29:09.317Z,14.6
2023-05-09T10:30:05.812Z,14.6
2023-05-09T10:31:15.107Z,14.3
2023-05-09T10:32:09.903Z,14.2
2023-05-09T10:33:06.854Z,14.1
2023-05-09T10:34:04.242Z,14.2
2023-05-09T10:35:05.455Z,14.2
2023-05-09T10:36:02.203Z,14.2
2023-05-09T10:37:01.149Z,14.3
2023-05-09T10:38:01.180Z,14.3
2023-05-09T10:39:00.979Z,14.4
2023-05-09T10:40:02.314Z,14.5
2023-05-09T10:41:01.200Z,14.5
2023-05-09T10:42:01.083Z,14.6
2023-05-09T10:43:00.643Z,14.5
2023-05-09T10:44:00.863Z,14.5
2023-05-09T10:45:00.837Z,14.5
2023-05-09T10:46:02.469Z,14.5
2023-05-09T10:47:01.467Z,14.4
2023-05-09T10:48:01.294Z,14.3
2023-05-09T10:49:00.880Z,14.4
2023-05-09T10:50:01.015Z,14.5
2023-05-09T10:51:02.283Z,14.4
2023-05-09T10:52:00.630Z,14.5
2023-05-09T10:53:02.141Z,14.6
2023-05-09T10:54:00.622Z,14.6
2023-05-09T10:55:02.706Z,14.4
2023-05-09T10:56:01.730Z,14.5
2023-05-09T10:57:00.651Z,14.6
2023-05-09T10:58:18.028Z,14.7
2023-05-09T10:59:00.993Z,14.7
2023-05-09T11:00:08.492Z,14.7
2023-05-09T11:01:02.611Z,14.8
2023-05-09T11:02:01.258Z,14.8
2023-05-09T11:03:05.802Z,14.8
2023-05-09T11:04:01.562Z,14.9
2023-05-09T11:05:12.644Z,15.1
2023-05-09T11:06:00.662Z,15.0
2023-05-09T11:07:00.652Z,14.9
2023-05-09T11:08:20.519Z,14.6
2023-05-09T11:09:20.556Z,14.5
2023-05-09T11:10:09.388Z,14.5
2023-05-09T11:11:20.563Z,14.5
2023-05-09T11:12:07.351Z,14.6
2023-05-09T11:13:00.663Z,14.8
2023-05-09T11:14:00.636Z,14.9
2023-05-09T11:15:06.446Z,14.8
2023-05-09T11:16:00.641Z,14.7
2023-05-09T11:17:02.478Z,14.6
2023-05-09T11:18:11.824Z,14.5
2023-05-09T11:19:00.643Z,14.7
2023-05-09T11:20:03.615Z,14.7
2023-05-09T11:21:07.051Z,14.8
2023-05-09T11:22:01.346Z,14.8
2023-05-09T11:23:03.472Z,14.8
2023-05-09T11:24:17.887Z,14.9
2023-05-09T11:25:04.428Z,14.9
2023-05-09T11:26:08.203Z,14.9
2023-05-09T11:27:00.673Z,14.8
2023-05-09T11:28:01.107Z,14.8
2023-05-09T11:29:05.088Z,15.0
2023-05-09T11:30:04.160Z,15.0
2023-05-09T11:31:11.640Z,15.1
2023-05-09T11:32:05.433Z,15.2
2023-05-09T11:33:00.683Z,15.1
2023-05-09T11:34:01.330Z,14.9
2023-05-09T11:35:09.961Z,15.0
2023-05-09T11:36:18.881Z,14.9
2023-05-09T11:37:11.628Z,14.9
2023-05-09T11:38:03.896Z,14.9
2023-05-09T11:39:04.279Z,14.9
2023-05-09T11:40:01.634Z,14.8
2023-05-09T11:41:00.728Z,14.9
2023-05-09T11:42:00.785Z,15.0
2023-05-09T11:43:00.961Z,15.0
2023-05-09T11:44:00.618Z,14.9
2023-05-09T11:45:02.679Z,15.0
2023-05-09T11:46:01.751Z,15.1
2023-05-09T11:47:00.613Z,15.1
2023-05-09T11:48:00.787Z,15.2
2023-05-09T11:49:00.628Z,15.2
2023-05-09T11:50:00.620Z,15.1
2023-05-09T11:51:01.577Z,15.2
2023-05-09T11:52:00.620Z,15.2
2023-05-09T11:53:00.637Z,15.2
2023-05-09T11:54:00.842Z,15.2
2023-05-09T11:55:00.631Z,15.1
2023-05-09T11:56:01.788Z,15.1
2023-05-09T11:57:00.637Z,15.1
2023-05-09T11:58:00.668Z,15.1
2023-05-09T11:59:00.878Z,15.3
2023-05-09T12:00:00.920Z,15.2
2023-05-09T12:01:00.646Z,15.2
2023-05-09T12:02:03.548Z,15.3
2023-05-09T12:03:04.440Z,15.2
2023-05-09T12:04:01.130Z,15.1
2023-05-09T12:05:12.200Z,15.2
2023-05-09T12:06:00.663Z,15.2
2023-05-09T12:07:01.193Z,15.4
2023-05-09T12:08:02.248Z,15.4
2023-05-09T12:09:00.616Z,15.5
2023-05-09T12:10:00.803Z,15.5
2023-05-09T12:11:08.508Z,15.5
2023-05-09T12:12:00.656Z,15.3
2023-05-09T12:13:00.837Z,15.2
2023-05-09T12:14:00.612Z,15.2
2023-05-09T12:15:05.928Z,15.4
2023-05-09T12:16:01.239Z,15.6
2023-05-09T12:17:00.753Z,15.7
2023-05-09T12:18:02.727Z,15.6
2023-05-09T12:19:00.607Z,15.6
2023-05-09T12:20:01.170Z,15.4
2023-05-09T12:21:00.865Z,15.4
2023-05-09T12:22:02.359Z,15.3
2023-05-09T12:23:02.133Z,15.3
2023-05-09T12:24:00.640Z,15.4
2023-05-09T12:25:03.365Z,15.3
2023-05-09T12:26:00.681Z,15.4
2023-05-09T12:27:01.115Z,15.5
2023-05-09T12:28:00.713Z,15.6
2023-05-09T12:29:00.776Z,15.4
2023-05-09T12:30:00.923Z,15.4
2023-05-09T12:31:01.224Z,15.4
2023-05-09T12:32:00.979Z,15.6
2023-05-09T12:33:00.761Z,15.8
2023-05-09T12:34:00.799Z,15.6
2023-05-09T12:35:00.884Z,15.4
2023-05-09T12:36:11.137Z,15.4
2023-05-09T12:37:00.648Z,15.6
2023-05-09T12:38:00.791Z,15.6
2023-05-09T12:39:00.623Z,15.6
2023-05-09T12:40:09.332Z,15.6
2023-05-09T12:41:03.776Z,15.5
2023-05-09T12:42:02.209Z,15.5
2023-05-09T12:43:00.673Z,15.5
2023-05-09T12:44:00.764Z,15.5
2023-05-09T12:45:01.812Z,15.5
2023-05-09T12:46:02.059Z,15.6
2023-05-09T12:47:02.278Z,15.7
2023-05-09T12:48:00.721Z,15.8
2023-05-09T12:49:00.712Z,15.8
2023-05-09T12:50:02.574Z,15.6
2023-05-09T12:51:03.146Z,15.6
2023-05-09T12:52:03.004Z,15.6
2023-05-09T12:53:03.635Z,15.7
2023-05-09T12:54:02.550Z,15.8
2023-05-09T12:55:07.369Z,15.9
2023-05-09T12:56:03.217Z,15.9
2023-05-09T12:57:00.699Z,15.9
2023-05-09T12:58:02.148Z,15.9
2023-05-09T12:59:00.630Z,15.9
2023-05-09T13:00:03.381Z,16.0
2023-05-09T13:01:02.972Z,16.1
2023-05-09T13:02:00.771Z,16.2
2023-05-09T13:03:00.930Z,16.3
2023-05-09T13:04:04.867Z,16.1
2023-05-09T13:05:05.059Z,16.1
2023-05-09T13:06:00.803Z,16.1
2023-05-09T13:07:00.629Z,16.0
2023-05-09T13:08:00.754Z,16.1
2023-05-09T13:09:03.316Z,16.1
2023-05-09T13:10:00.645Z,16.0
2023-05-09T13:11:14.823Z,15.9
2023-05-09T13:12:01.692Z,15.9
2023-05-09T13:13:03.118Z,15.9
2023-05-09T13:14:01.956Z,16.0
2023-05-09T13:15:00.934Z,16.0
2023-05-09T13:16:02.769Z,16.1
2023-05-09T13:17:01.015Z,16.0
2023-05-09T13:18:00.685Z,16.0
2023-05-09T13:19:00.716Z,16.0
2023-05-09T13:20:00.776Z,16.1
2023-05-09T13:21:00.618Z,16.1
2023-05-09T13:22:00.614Z,16.2
2023-05-09T13:23:00.615Z,16.2
2023-05-09T13:24:01.454Z,16.2
2023-05-09T13:25:01.930Z,16.1
2023-05-09T13:26:00.682Z,16.1
2023-05-09T13:27:00.621Z,16.1
2023-05-09T13:28:00.707Z,16.1
2023-05-09T13:29:00.609Z,16.1